עמוד ראשי
METAR-TAF:

METAR-TAF

שדות תעופה :

סיודאד חוארס, מקסיקו

קו רוחב: 31-38N, קו אורך: 106-26W, גובה: 1171מטר

תצפית מזג אוויר נוכחית

הדו"ח נערך לפני 6 שעות ו 0דקות, בשעה 02:40 UTC
רוח 4קשר מכיוון מערב/דרום-מערב
טמפרטורת 34 צלסיוס
לחות 5%
לחץ 1011 hPa
ראות: 16.1קילומטר
שמיים נקיים

METAR: MMCS 160240Z 25004KT 10SM SKC 34/M11 A2985 RMK SLP972 57001 961

זמן: 02:40 (08:40 UTC)

תחזית

הדו"ח נערך לפני 3 שעות ו 12דקות, בשעה 05:28 UTC
תחזית בתוקף מ 16 ב 06 UTC עד 17 ב 06 UTC
רוח קשר מכיוון צפון
ראות: 10קילומטר
שמיים נקיים
יעשה מ
16 ב 17 UTC עד 16 ב 18 UTC
רוח 12קשר מכיוון מערב/דרום-מערב
מ 17 ב 0300UTC
רוח קשר מכיוון צפון
ראות: 10קילומטר
שמיים נקיים

TAF: MMCS 160528Z 1606/1706 00000KT P6SM SKC BECMG 1617/1618 24012KT FM170300 00000KT P6SM SKC

תצפיות ותחזיות מזג אוויר לגבי יותר מ- 4,000 שדות תעופה ברחבי העולם. דוחות METAR ו- TAF.

התחנות הזמינות מסומנות בנקודות צהובות ואדומות על גבי המפה.

העבר את העכבר לנקודה הצבעונית על מנת לראות את שם התחנה.

לאחר מכן, לחץ כדי לראות את תוכן ואת תחזיות מזג האוויר.

כדי לשנות את המפה: לחץ על הכפתורים הירוקים עם הפלוס השחור כדי להתקרב; על הכפתור הירוק עם המקף כדי להתרחק; או בחיצים הירוקים למפות סמוכות.


METAR-TAF: